createdAt,value
2018-01-23T00:01:23.062Z,7.20
2018-01-23T00:03:50.588Z,7.10
2018-01-23T00:06:18.128Z,7.00
2018-01-23T00:08:45.598Z,7.00
2018-01-23T00:11:13.124Z,6.90
2018-01-23T00:13:40.682Z,6.80
2018-01-23T00:16:08.158Z,6.70
2018-01-23T00:18:36.403Z,6.70
2018-01-23T00:21:04.051Z,6.70
2018-01-23T00:23:32.294Z,6.60
2018-01-23T00:25:59.803Z,6.60
2018-01-23T00:28:27.450Z,6.60
2018-01-23T00:30:54.946Z,6.60
2018-01-23T00:33:23.257Z,6.80
2018-01-23T00:35:50.764Z,6.80
2018-01-23T00:38:19.028Z,7.00
2018-01-23T00:40:46.527Z,7.00
2018-01-23T00:43:14.046Z,7.10
2018-01-23T00:45:41.542Z,7.20
2018-01-23T00:48:09.811Z,7.30
2018-01-23T00:50:37.427Z,7.30
2018-01-23T00:53:04.931Z,7.30
2018-01-23T00:55:32.479Z,7.20
2018-01-23T00:58:00.096Z,7.20
2018-01-23T01:00:27.610Z,7.10
2018-01-23T01:02:55.884Z,7.00
2018-01-23T01:05:23.799Z,7.10
2018-01-23T01:07:51.443Z,7.00
2018-01-23T01:10:18.976Z,7.00
2018-01-23T01:12:46.537Z,7.10
2018-01-23T01:15:14.050Z,7.10
2018-01-23T01:17:41.516Z,7.10
2018-01-23T01:20:09.039Z,7.20
2018-01-23T01:22:37.760Z,7.20
2018-01-23T01:25:06.072Z,7.20
2018-01-23T01:27:33.598Z,7.20
2018-01-23T01:30:01.153Z,7.30
2018-01-23T01:32:28.662Z,7.30
2018-01-23T01:34:56.192Z,7.30
2018-01-23T01:37:24.467Z,7.40
2018-01-23T01:39:52.743Z,7.40
2018-01-23T01:42:20.358Z,7.50
2018-01-23T01:44:47.831Z,7.50
2018-01-23T01:47:15.360Z,7.40
2018-01-23T01:49:43.164Z,7.50
2018-01-23T01:52:10.654Z,7.50
2018-01-23T01:54:38.172Z,7.50
2018-01-23T01:57:05.698Z,7.40
2018-01-23T01:59:33.197Z,7.40
2018-01-23T02:02:00.705Z,7.40
2018-01-23T02:04:29.103Z,7.40
2018-01-23T02:06:56.648Z,7.40
2018-01-23T02:09:24.180Z,7.40
2018-01-23T02:11:51.673Z,7.40
2018-01-23T02:14:19.212Z,7.40
2018-01-23T02:16:46.757Z,7.30
2018-01-23T02:19:14.407Z,7.30
2018-01-23T02:21:41.910Z,7.30
2018-01-23T02:24:09.444Z,7.40
2018-01-23T02:26:37.065Z,7.40
2018-01-23T02:29:05.339Z,7.40
2018-01-23T02:31:32.842Z,7.40
2018-01-23T02:34:00.404Z,7.40
2018-01-23T02:36:27.948Z,7.40
2018-01-23T02:38:55.479Z,7.50
2018-01-23T02:41:22.974Z,7.50
2018-01-23T02:43:50.519Z,7.50
2018-01-23T02:46:18.019Z,7.50
2018-01-23T02:48:46.643Z,7.50
2018-01-23T02:51:14.189Z,7.50
2018-01-23T02:53:44.867Z,7.50
2018-01-23T02:56:12.358Z,7.50
2018-01-23T02:58:39.863Z,7.50
2018-01-23T03:01:07.327Z,7.40
2018-01-23T03:03:34.955Z,7.40
2018-01-23T03:06:02.464Z,7.40
2018-01-23T03:08:29.957Z,7.30
2018-01-23T03:10:57.491Z,7.30
2018-01-23T03:13:24.995Z,7.20
2018-01-23T03:15:53.279Z,7.10
2018-01-23T03:18:21.157Z,7.10
2018-01-23T03:20:49.645Z,7.10
2018-01-23T03:23:17.144Z,7.10
2018-01-23T03:25:45.044Z,7.00
2018-01-23T03:28:12.559Z,7.00
2018-01-23T03:30:40.075Z,6.90
2018-01-23T03:33:07.747Z,6.80
2018-01-23T03:35:35.224Z,6.80
2018-01-23T03:38:02.749Z,6.80
2018-01-23T03:40:40.617Z,6.80
2018-01-23T03:43:08.081Z,6.70
2018-01-23T03:45:35.578Z,6.60
2018-01-23T03:48:03.254Z,6.60
2018-01-23T03:50:30.771Z,6.50
2018-01-23T03:52:58.293Z,6.50
2018-01-23T03:55:25.922Z,6.50
2018-01-23T03:57:53.424Z,6.40
2018-01-23T04:00:20.902Z,6.40
2018-01-23T04:02:48.428Z,6.30
2018-01-23T04:05:15.939Z,6.30
2018-01-23T04:07:43.448Z,6.30
2018-01-23T04:10:11.727Z,6.20
2018-01-23T04:12:39.210Z,6.20
2018-01-23T04:15:06.696Z,6.20
2018-01-23T04:17:35.079Z,6.20
2018-01-23T04:20:02.611Z,6.10
2018-01-23T04:22:30.130Z,6.20
2018-01-23T04:24:58.486Z,6.10
2018-01-23T04:27:25.987Z,6.10
2018-01-23T04:29:53.495Z,6.10
2018-01-23T04:32:21.853Z,6.00
2018-01-23T04:34:50.123Z,6.00
2018-01-23T04:37:18.504Z,6.00
2018-01-23T04:39:46.070Z,6.00
2018-01-23T04:42:13.591Z,6.00
2018-01-23T04:44:41.057Z,5.90
2018-01-23T04:47:08.731Z,5.80
2018-01-23T04:49:36.234Z,5.80
2018-01-23T04:52:03.772Z,5.80
2018-01-23T04:54:31.302Z,5.70
2018-01-23T04:56:58.852Z,5.70
2018-01-23T04:59:26.339Z,5.60
2018-01-23T05:01:53.863Z,5.60
2018-01-23T05:04:21.398Z,5.50
2018-01-23T05:06:48.895Z,5.30
2018-01-23T05:09:17.183Z,5.20
2018-01-23T05:11:44.666Z,5.10
2018-01-23T05:14:12.209Z,5.10
2018-01-23T05:16:39.868Z,5.00
2018-01-23T05:19:07.370Z,5.00
2018-01-23T05:21:34.927Z,4.90
2018-01-23T05:24:02.550Z,4.90
2018-01-23T05:26:30.093Z,4.80
2018-01-23T05:28:57.697Z,4.80
2018-01-23T05:31:25.618Z,4.80
2018-01-23T05:33:53.153Z,4.70
2018-01-23T05:36:20.663Z,4.70
2018-01-23T05:38:48.216Z,4.70
2018-01-23T05:41:15.685Z,4.70
2018-01-23T05:43:43.191Z,4.60
2018-01-23T05:46:10.923Z,4.60
2018-01-23T05:48:39.263Z,4.60
2018-01-23T05:51:06.730Z,4.60
2018-01-23T05:53:35.067Z,4.60
2018-01-23T05:56:02.547Z,4.60
2018-01-23T05:58:30.092Z,4.70
2018-01-23T06:00:57.647Z,4.70
2018-01-23T06:03:25.197Z,4.80
2018-01-23T06:05:52.674Z,4.90
2018-01-23T06:08:20.382Z,5.00
2018-01-23T06:10:47.932Z,5.00
2018-01-23T06:13:15.442Z,5.10
2018-01-23T06:15:43.911Z,5.20
2018-01-23T06:18:12.184Z,5.20
2018-01-23T06:20:39.683Z,5.20
2018-01-23T06:23:07.197Z,5.30
2018-01-23T06:25:34.670Z,5.30
2018-01-23T06:28:02.170Z,5.30
2018-01-23T06:30:30.425Z,5.30
2018-01-23T06:32:57.917Z,5.30
2018-01-23T06:35:25.434Z,5.40
2018-01-23T06:37:53.971Z,5.40
2018-01-23T06:40:21.484Z,5.40
2018-01-23T06:42:48.954Z,5.50
2018-01-23T06:45:16.478Z,5.50
2018-01-23T06:47:44.763Z,5.50
2018-01-23T06:50:12.351Z,5.50
2018-01-23T06:52:39.870Z,5.60
2018-01-23T06:55:07.383Z,5.60
2018-01-23T06:57:34.879Z,5.60
2018-01-23T07:00:02.408Z,5.70
2018-01-23T07:02:29.907Z,5.70
2018-01-23T07:04:58.206Z,5.70
2018-01-23T07:07:25.772Z,5.70
2018-01-23T07:09:53.288Z,5.80
2018-01-23T07:12:20.800Z,5.80
2018-01-23T07:14:49.123Z,5.90
2018-01-23T07:17:16.665Z,5.80
2018-01-23T07:19:44.168Z,5.90
2018-01-23T07:22:11.703Z,5.90
2018-01-23T07:24:39.207Z,5.90
2018-01-23T07:27:06.737Z,6.00
2018-01-23T07:29:34.412Z,6.00
2018-01-23T07:32:02.680Z,6.10
2018-01-23T07:34:30.150Z,6.10
2018-01-23T07:36:57.655Z,6.00
2018-01-23T07:39:25.961Z,6.00
2018-01-23T07:41:53.505Z,6.00
2018-01-23T07:44:21.122Z,6.00
2018-01-23T07:46:48.639Z,6.00
2018-01-23T07:49:16.179Z,6.10
2018-01-23T07:51:43.882Z,6.10
2018-01-23T07:54:11.413Z,6.10
2018-01-23T07:56:38.915Z,6.20
2018-01-23T07:59:07.343Z,6.10
2018-01-23T08:01:34.847Z,6.10
2018-01-23T08:04:02.612Z,6.10
2018-01-23T08:06:30.287Z,6.10
2018-01-23T08:08:57.836Z,6.20
2018-01-23T08:11:25.334Z,6.30
2018-01-23T08:13:52.966Z,6.30
2018-01-23T08:16:20.520Z,6.30
2018-01-23T08:18:48.061Z,6.40
2018-01-23T08:21:15.910Z,6.40
2018-01-23T08:23:43.386Z,6.40
2018-01-23T08:26:10.891Z,6.40
2018-01-23T08:28:38.565Z,6.50
2018-01-23T08:31:06.167Z,6.50
2018-01-23T08:33:34.426Z,6.40
2018-01-23T08:36:02.790Z,6.30
2018-01-23T08:38:31.142Z,6.40
2018-01-23T08:40:58.725Z,6.40
2018-01-23T08:43:26.306Z,6.30
2018-01-23T08:45:53.807Z,6.30
2018-01-23T08:48:21.278Z,6.40
2018-01-23T08:50:49.190Z,6.40
2018-01-23T08:53:17.509Z,6.40
2018-01-23T08:55:44.970Z,6.40
2018-01-23T08:58:12.586Z,6.40
2018-01-23T09:00:40.133Z,6.40
2018-01-23T09:03:07.625Z,6.40
2018-01-23T09:05:35.940Z,6.70
2018-01-23T09:08:03.420Z,6.60
2018-01-23T09:10:30.931Z,6.50
2018-01-23T09:12:58.464Z,6.60
2018-01-23T09:15:25.967Z,6.50
2018-01-23T09:17:53.504Z,6.50
2018-01-23T09:20:21.236Z,6.60
2018-01-23T09:22:49.558Z,6.60
2018-01-23T09:25:17.109Z,6.50
2018-01-23T09:27:44.642Z,6.60
2018-01-23T09:30:12.155Z,6.60
2018-01-23T09:32:39.799Z,6.70
2018-01-23T09:35:07.467Z,6.70
2018-01-23T09:37:34.967Z,6.80
2018-01-23T09:40:03.240Z,6.70
2018-01-23T09:42:30.770Z,6.70
2018-01-23T09:44:58.267Z,6.70
2018-01-23T09:47:25.734Z,6.80
2018-01-23T09:49:53.411Z,6.80
2018-01-23T09:52:20.918Z,6.90
2018-01-23T09:54:48.445Z,6.90
2018-01-23T09:57:15.979Z,7.10
2018-01-23T09:59:43.520Z,7.10
2018-01-23T10:02:11.027Z,7.10
2018-01-23T10:04:38.522Z,7.10
2018-01-23T10:07:06.032Z,7.10
2018-01-23T10:09:33.511Z,7.00
2018-01-23T10:12:01.188Z,7.00
2018-01-23T10:14:29.533Z,7.10
2018-01-23T10:16:57.050Z,7.10
2018-01-23T10:19:24.571Z,7.20
2018-01-23T10:21:52.066Z,7.20
2018-01-23T10:24:19.638Z,7.30
2018-01-23T10:26:47.283Z,7.50
2018-01-23T10:29:14.770Z,7.50
2018-01-23T10:31:42.256Z,7.60
2018-01-23T10:34:10.696Z,7.70
2018-01-23T10:36:38.243Z,7.70
2018-01-23T10:39:05.795Z,7.70
2018-01-23T10:41:34.149Z,7.80
2018-01-23T10:44:01.667Z,7.80
2018-01-23T10:46:29.177Z,7.90
2018-01-23T10:48:56.746Z,7.90
2018-01-23T10:51:24.222Z,7.90
2018-01-23T10:53:51.743Z,7.90
2018-01-23T10:56:19.251Z,7.90
2018-01-23T10:58:46.822Z,7.90
2018-01-23T11:01:14.335Z,7.90
2018-01-23T11:03:42.044Z,7.90
2018-01-23T11:06:10.364Z,7.90
2018-01-23T11:08:37.875Z,7.90
2018-01-23T11:11:05.588Z,8.00
2018-01-23T11:13:33.092Z,8.00
2018-01-23T11:16:00.627Z,8.00
2018-01-23T11:18:28.205Z,8.00
2018-01-23T11:20:55.715Z,8.10
2018-01-23T11:23:23.272Z,8.10
2018-01-23T11:25:51.066Z,8.10
2018-01-23T11:28:30.066Z,8.00
2018-01-23T11:30:57.587Z,8.10
2018-01-23T11:33:25.166Z,8.10
2018-01-23T11:35:53.442Z,8.10
2018-01-23T11:38:21.047Z,8.10
2018-01-23T11:40:48.557Z,8.10
2018-01-23T11:43:16.213Z,8.10
2018-01-23T11:45:44.116Z,8.20
2018-01-23T11:48:12.461Z,8.20
2018-01-23T11:50:40.779Z,8.30
2018-01-23T11:53:08.352Z,8.30
2018-01-23T11:55:35.838Z,8.40
2018-01-23T11:58:04.139Z,8.30
2018-01-23T12:00:32.701Z,8.40
2018-01-23T12:03:00.293Z,8.30
2018-01-23T12:05:28.679Z,8.40
2018-01-23T12:07:56.174Z,8.40
2018-01-23T12:10:23.637Z,8.40
2018-01-23T12:12:51.203Z,8.30
2018-01-23T12:15:18.923Z,8.20
2018-01-23T12:17:46.451Z,8.30
2018-01-23T12:20:14.037Z,8.20
2018-01-23T12:22:41.725Z,8.20
2018-01-23T12:25:09.277Z,8.20
2018-01-23T12:27:38.833Z,8.30
2018-01-23T12:30:06.728Z,8.20
2018-01-23T12:32:34.268Z,8.20
2018-01-23T12:35:01.841Z,8.30
2018-01-23T12:37:30.260Z,8.20
2018-01-23T12:39:57.741Z,8.30
2018-01-23T12:42:25.270Z,8.30
2018-01-23T12:44:52.865Z,8.40
2018-01-23T12:47:20.405Z,8.40
2018-01-23T12:49:47.935Z,8.40
2018-01-23T12:52:15.668Z,8.40
2018-01-23T12:54:44.017Z,8.40
2018-01-23T12:57:11.555Z,8.40
2018-01-23T12:59:39.091Z,8.30
2018-01-23T13:02:06.618Z,8.30
2018-01-23T13:04:34.191Z,8.30
2018-01-23T13:07:01.929Z,8.30
2018-01-23T13:09:29.506Z,8.30
2018-01-23T13:11:57.806Z,8.30
2018-01-23T13:14:25.457Z,8.30
2018-01-23T13:16:52.988Z,8.30
2018-01-23T13:19:21.338Z,8.30
2018-01-23T13:21:49.008Z,8.40
2018-01-23T13:24:16.609Z,8.30
2018-01-23T13:26:44.964Z,8.20
2018-01-23T13:29:13.326Z,8.20
2018-01-23T13:31:41.623Z,8.20
2018-01-23T13:34:09.148Z,8.20
2018-01-23T13:36:36.780Z,8.20
2018-01-23T13:39:05.172Z,8.30
2018-01-23T13:41:32.716Z,8.20
2018-01-23T13:44:00.379Z,8.30
2018-01-23T13:46:27.953Z,8.30
2018-01-23T13:48:55.468Z,8.20
2018-01-23T13:51:23.030Z,8.20
2018-01-23T13:53:50.773Z,8.30
2018-01-23T13:56:18.345Z,8.20
2018-01-23T13:58:46.698Z,8.30
2018-01-23T14:01:14.215Z,8.20
2018-01-23T14:03:41.746Z,8.30
2018-01-23T14:06:10.364Z,8.30
2018-01-23T14:08:38.712Z,8.30
2018-01-23T14:11:06.306Z,8.30
2018-01-23T14:13:34.233Z,8.30
2018-01-23T14:16:01.814Z,8.30
2018-01-23T14:18:29.289Z,8.30
2018-01-23T14:20:56.953Z,8.30
2018-01-23T14:23:24.537Z,8.30
2018-01-23T14:25:52.067Z,8.30
2018-01-23T14:28:20.520Z,8.40
2018-01-23T14:30:48.875Z,8.40
2018-01-23T14:33:16.485Z,8.30
2018-01-23T14:35:45.088Z,8.30
2018-01-23T14:38:13.396Z,8.40
2018-01-23T14:40:40.898Z,8.40
2018-01-23T14:43:09.254Z,8.30
2018-01-23T14:45:37.597Z,8.30
2018-01-23T14:48:05.180Z,8.30
2018-01-23T14:50:32.965Z,8.40
2018-01-23T14:53:01.550Z,8.40
2018-01-23T14:55:29.127Z,8.40
2018-01-23T14:57:57.703Z,8.40
2018-01-23T15:00:25.292Z,8.50
2018-01-23T15:02:52.830Z,8.50
2018-01-23T15:05:20.707Z,8.40
2018-01-23T15:07:48.286Z,8.30
2018-01-23T15:10:18.691Z,8.30
2018-01-23T15:12:47.617Z,8.30
2018-01-23T15:15:15.164Z,8.30
2018-01-23T15:17:42.693Z,8.20
2018-01-23T15:20:10.225Z,8.30
2018-01-23T15:22:37.748Z,8.30
2018-01-23T15:25:05.299Z,8.30
2018-01-23T15:27:33.041Z,8.30
2018-01-23T15:30:01.378Z,8.20
2018-01-23T15:32:28.911Z,8.10
2018-01-23T15:34:56.603Z,8.10
2018-01-23T15:37:24.179Z,8.00
2018-01-23T15:39:51.746Z,8.00
2018-01-23T15:42:19.410Z,8.00
2018-01-23T15:44:48.726Z,7.90
2018-01-23T15:47:16.313Z,7.90
2018-01-23T15:49:43.993Z,7.80
2018-01-23T15:52:11.552Z,7.80
2018-01-23T15:54:39.083Z,7.80
2018-01-23T15:57:06.712Z,7.70
2018-01-23T15:59:34.282Z,7.70
2018-01-23T16:02:01.853Z,7.70
2018-01-23T16:04:29.453Z,7.70
2018-01-23T16:06:57.800Z,7.60
2018-01-23T16:09:25.381Z,7.60
2018-01-23T16:11:53.122Z,7.60
2018-01-23T16:14:21.406Z,7.40
2018-01-23T16:16:48.923Z,7.40
2018-01-23T16:19:16.540Z,7.40
2018-01-23T16:21:44.121Z,7.40
2018-01-23T16:24:11.662Z,7.30
2018-01-23T16:26:39.328Z,7.30
2018-01-23T16:29:07.665Z,7.30
2018-01-23T16:31:36.012Z,7.30
2018-01-23T16:34:04.656Z,7.30
2018-01-23T16:36:33.191Z,7.30
2018-01-23T16:39:00.732Z,7.30
2018-01-23T16:41:28.477Z,7.20
2018-01-23T16:43:56.040Z,7.20
2018-01-23T16:46:23.609Z,7.20
2018-01-23T16:48:51.192Z,7.20
2018-01-23T16:51:18.755Z,7.20
2018-01-23T16:53:46.294Z,7.20
2018-01-23T16:56:13.864Z,7.10
2018-01-23T16:58:41.436Z,7.10
2018-01-23T17:01:08.972Z,7.10
2018-01-23T17:03:36.555Z,7.00
2018-01-23T17:06:04.139Z,7.00
2018-01-23T17:08:31.622Z,7.00
2018-01-23T17:10:59.322Z,6.90
2018-01-23T17:13:26.905Z,6.80
2018-01-23T17:15:54.444Z,6.70
2018-01-23T17:18:22.004Z,6.60
2018-01-23T17:20:50.407Z,6.50
2018-01-23T17:23:17.964Z,6.50
2018-01-23T17:25:45.696Z,6.50
2018-01-23T17:28:15.224Z,6.50
2018-01-23T17:30:42.750Z,6.50
2018-01-23T17:33:11.366Z,6.50
2018-01-23T17:35:39.676Z,6.50
2018-01-23T17:38:07.190Z,6.40
2018-01-23T17:40:34.783Z,6.50
2018-01-23T17:43:02.357Z,6.40
2018-01-23T17:45:30.702Z,6.30
2018-01-23T17:47:58.590Z,6.30
2018-01-23T17:50:26.147Z,6.30
2018-01-23T17:52:53.725Z,6.20
2018-01-23T17:55:21.375Z,6.20
2018-01-23T17:57:48.969Z,6.20
2018-01-23T18:00:16.507Z,6.20
2018-01-23T18:02:44.116Z,6.20
2018-01-23T18:05:11.602Z,6.10
2018-01-23T18:07:39.170Z,5.90
2018-01-23T18:10:06.850Z,5.90
2018-01-23T18:12:34.388Z,5.80
2018-01-23T18:15:01.968Z,5.80
2018-01-23T18:17:29.641Z,5.70
2018-01-23T18:19:57.980Z,5.60
2018-01-23T18:22:25.552Z,5.60
2018-01-23T18:24:54.025Z,5.50
2018-01-23T18:27:21.571Z,5.50
2018-01-23T18:29:49.496Z,5.50
2018-01-23T18:32:17.109Z,5.40
2018-01-23T18:34:44.654Z,5.30
2018-01-23T18:37:12.232Z,5.30
2018-01-23T18:39:40.720Z,5.30
2018-01-23T18:42:08.276Z,5.30
2018-01-23T18:44:35.853Z,5.20
2018-01-23T18:47:03.431Z,5.20
2018-01-23T18:49:31.777Z,5.10
2018-01-23T18:51:59.358Z,5.10
2018-01-23T18:54:26.938Z,5.10
2018-01-23T18:56:54.482Z,5.00
2018-01-23T18:59:22.027Z,5.00
2018-01-23T19:01:49.719Z,5.00
2018-01-23T19:04:18.061Z,5.00
2018-01-23T19:06:45.646Z,4.90
2018-01-23T19:09:13.383Z,4.90
2018-01-23T19:11:40.931Z,4.90
2018-01-23T19:14:09.190Z,4.90
2018-01-23T19:16:36.921Z,4.90
2018-01-23T19:19:05.230Z,5.00
2018-01-23T19:21:32.784Z,5.00
2018-01-23T19:24:00.373Z,5.00
2018-01-23T19:26:27.964Z,4.90
2018-01-23T19:28:55.575Z,4.80
2018-01-23T19:31:23.205Z,4.70
2018-01-23T19:33:50.776Z,4.60
2018-01-23T19:36:18.269Z,4.50
2018-01-23T19:38:46.145Z,4.40
2018-01-23T19:41:13.721Z,4.40
2018-01-23T19:43:42.899Z,4.30
2018-01-23T19:46:10.548Z,4.30
2018-01-23T19:48:38.834Z,4.30
2018-01-23T19:51:06.298Z,4.20
2018-01-23T19:53:33.889Z,4.30
2018-01-23T19:56:01.497Z,4.20
2018-01-23T19:58:29.094Z,4.20
2018-01-23T20:00:56.668Z,4.20
2018-01-23T20:03:24.265Z,4.10
2018-01-23T20:05:51.842Z,4.00
2018-01-23T20:08:19.559Z,3.90
2018-01-23T20:10:47.150Z,3.90
2018-01-23T20:13:14.797Z,3.90
2018-01-23T20:15:42.407Z,3.80
2018-01-23T20:18:09.963Z,3.80
2018-01-23T20:20:37.567Z,3.70
2018-01-23T20:23:05.430Z,3.60
2018-01-23T20:25:33.032Z,3.60
2018-01-23T20:28:00.609Z,3.60
2018-01-23T20:30:28.506Z,3.50
2018-01-23T20:32:56.092Z,3.50
2018-01-23T20:35:23.611Z,3.50
2018-01-23T20:37:52.188Z,3.60
2018-01-23T20:40:20.555Z,3.60
2018-01-23T20:42:49.046Z,3.50
2018-01-23T20:45:16.650Z,3.50
2018-01-23T20:47:44.216Z,3.50
2018-01-23T20:50:12.685Z,3.40
2018-01-23T20:52:40.395Z,3.30
2018-01-23T20:55:07.969Z,3.30
2018-01-23T20:57:36.209Z,3.40
2018-01-23T21:00:04.112Z,3.40
2018-01-23T21:02:31.701Z,3.40
2018-01-23T21:04:59.182Z,3.40
2018-01-23T21:07:26.753Z,3.40
2018-01-23T21:09:54.334Z,3.50
2018-01-23T21:12:21.909Z,3.40
2018-01-23T21:14:50.289Z,3.40
2018-01-23T21:17:17.863Z,3.40
2018-01-23T21:19:45.440Z,3.40
2018-01-23T21:22:13.146Z,3.30
2018-01-23T21:24:40.721Z,3.30
2018-01-23T21:27:08.255Z,3.30
2018-01-23T21:29:35.837Z,2.70
2018-01-23T21:32:03.383Z,3.40
2018-01-23T21:34:31.762Z,3.30
2018-01-23T21:36:59.522Z,3.30
2018-01-23T21:39:27.084Z,3.30
2018-01-23T21:41:54.662Z,3.30
2018-01-23T21:44:22.578Z,3.30
2018-01-23T21:46:50.125Z,3.40
2018-01-23T21:49:17.662Z,3.40
2018-01-23T21:51:45.277Z,3.40
2018-01-23T21:54:12.815Z,3.40
2018-01-23T21:56:40.361Z,3.50
2018-01-23T21:59:08.200Z,3.50
2018-01-23T22:01:36.549Z,3.60
2018-01-23T22:04:04.893Z,3.60
2018-01-23T22:06:32.616Z,3.50
2018-01-23T22:09:00.195Z,3.60
2018-01-23T22:11:27.776Z,3.70
2018-01-23T22:13:55.418Z,3.80
2018-01-23T22:16:22.968Z,3.70
2018-01-23T22:18:50.545Z,3.70
2018-01-23T22:21:18.444Z,3.70
2018-01-23T22:23:46.760Z,3.80
2018-01-23T22:26:14.303Z,3.80
2018-01-23T22:28:42.019Z,3.80
2018-01-23T22:31:09.595Z,3.70
2018-01-23T22:33:37.138Z,3.70
2018-01-23T22:36:04.691Z,3.70
2018-01-23T22:38:32.272Z,3.70
2018-01-23T22:41:00.614Z,3.90
2018-01-23T22:43:28.187Z,3.90
2018-01-23T22:45:55.728Z,3.90
2018-01-23T22:48:24.100Z,4.10
2018-01-23T22:50:51.705Z,4.10
2018-01-23T22:53:19.288Z,4.10
2018-01-23T22:55:46.831Z,4.00
2018-01-23T22:58:14.777Z,4.10
2018-01-23T23:00:42.344Z,4.20
2018-01-23T23:03:09.912Z,4.20
2018-01-23T23:05:37.725Z,4.30
2018-01-23T23:08:05.300Z,4.30
2018-01-23T23:10:32.868Z,4.20
2018-01-23T23:13:00.819Z,4.30
2018-01-23T23:15:28.363Z,4.30
2018-01-23T23:17:55.935Z,4.30
2018-01-23T23:20:24.363Z,4.50
2018-01-23T23:22:51.941Z,4.50
2018-01-23T23:25:20.288Z,4.40
2018-01-23T23:27:48.017Z,4.40
2018-01-23T23:30:17.585Z,4.30
2018-01-23T23:32:45.138Z,4.30
2018-01-23T23:35:12.705Z,4.30
2018-01-23T23:37:40.286Z,4.30
2018-01-23T23:40:08.586Z,4.30
2018-01-23T23:42:36.376Z,4.30
2018-01-23T23:45:03.927Z,4.30
2018-01-23T23:47:32.269Z,4.40
2018-01-23T23:49:59.860Z,4.40
2018-01-23T23:52:27.408Z,4.50
2018-01-23T23:54:54.906Z,4.60
2018-01-23T23:57:22.455Z,4.70
2018-01-23T23:59:50.921Z,4.70
